Terminal Aerodrome Forecast
Issued by NWS

Current Version | Previous Version | Text Only | Print | Product List | Glossary On
Versions: 1 2 3 4 5 6 7 8 9 10 11 12 13 14 15 16 17
000
FTUS42 KMLB 260525
TAFFPR
TAF
KFPR 260525Z 2606/2706 12007KT P6SM SCT025 SCT100
     FM261400 10012KT P6SM FEW025
     FM261700 11015G22KT P6SM SCT030 BKN050
     FM270000 09011KT P6SM SCT025=

USA.gov is the U.S. government's official web portal to all federal, state and local government web resources and services.